createdAt,value
2019-04-28T00:01:59.059Z,25.30
2019-04-28T00:04:31.554Z,24.37
2019-04-28T00:07:03.513Z,23.95
2019-04-28T00:09:35.075Z,22.93
2019-04-28T00:12:06.938Z,23.35
2019-04-28T00:14:38.990Z,23.85
2019-04-28T00:17:12.099Z,23.00
2019-04-28T00:19:43.843Z,21.95
2019-04-28T00:22:17.465Z,24.05
2019-04-28T00:24:53.511Z,25.27
2019-04-28T00:27:25.187Z,24.65
2019-04-28T00:29:57.252Z,23.55
2019-04-28T00:32:30.471Z,23.55
2019-04-28T00:35:03.483Z,21.93
2019-04-28T00:37:36.615Z,21.75
2019-04-28T00:40:11.101Z,22.60
2019-04-28T00:42:43.024Z,23.15
2019-04-28T00:45:15.391Z,24.05
2019-04-28T00:47:47.252Z,24.43
2019-04-28T00:50:18.820Z,24.75
2019-04-28T00:52:51.813Z,24.05
2019-04-28T00:55:23.571Z,25.77
2019-04-28T00:57:55.436Z,25.48
2019-04-28T01:00:28.634Z,25.90
2019-04-28T01:03:02.198Z,26.65
2019-04-28T01:05:33.936Z,28.20
2019-04-28T01:08:05.692Z,29.02
2019-04-28T01:10:37.716Z,29.18
2019-04-28T01:13:11.604Z,28.32
2019-04-28T01:16:01.622Z,29.10
2019-04-28T01:18:35.428Z,27.62
2019-04-28T01:21:07.293Z,29.27
2019-04-28T01:23:40.251Z,30.68
2019-04-28T01:26:12.128Z,24.87
2019-04-28T01:28:43.989Z,23.85
2019-04-28T01:31:19.343Z,28.35
2019-04-28T01:34:10.308Z,31.80
2019-04-28T01:36:42.211Z,22.85
2019-04-28T01:39:14.194Z,24.30
2019-04-28T01:41:45.828Z,20.08
2019-04-28T01:44:19.674Z,18.90
2019-04-28T01:46:51.097Z,20.08
2019-04-28T01:49:23.081Z,19.02
2019-04-28T01:52:00.950Z,19.25
2019-04-28T01:54:33.861Z,18.65
2019-04-28T01:57:05.740Z,19.40
2019-04-28T01:59:37.689Z,18.30
2019-04-28T02:02:10.331Z,16.37
2019-04-28T02:04:42.259Z,15.93
2019-04-28T02:07:15.436Z,14.23
2019-04-28T02:09:49.062Z,14.00
2019-04-28T02:12:20.707Z,14.25
2019-04-28T02:14:52.986Z,15.20
2019-04-28T02:17:24.622Z,14.38
2019-04-28T02:19:56.689Z,14.18
2019-04-28T02:22:33.993Z,13.55
2019-04-28T02:25:07.419Z,13.08
2019-04-28T02:27:40.043Z,12.70
2019-04-28T02:30:12.847Z,12.20
2019-04-28T02:32:44.833Z,10.63
2019-04-28T02:35:17.615Z,9.65
2019-04-28T02:37:50.501Z,8.60
2019-04-28T02:40:22.204Z,14.63
2019-04-28T02:42:53.819Z,12.70
2019-04-28T02:45:26.166Z,12.58
2019-04-28T02:48:01.016Z,11.33
2019-04-28T02:50:34.327Z,10.88
2019-04-28T02:53:11.177Z,9.78
2019-04-28T02:56:03.587Z,8.38
2019-04-28T02:58:35.515Z,8.68
2019-04-28T03:01:18.045Z,9.10
2019-04-28T03:03:41.094Z,8.78
2019-04-28T03:06:13.244Z,9.28
2019-04-28T03:08:46.148Z,9.68
2019-04-28T03:11:20.322Z,10.50
2019-04-28T03:13:51.372Z,10.60
2019-04-28T03:16:23.777Z,9.65
2019-04-28T03:18:55.853Z,11.00
2019-04-28T03:21:28.002Z,10.88
2019-04-28T03:24:01.235Z,10.20
2019-04-28T03:26:34.912Z,10.65
2019-04-28T03:29:10.990Z,9.63
2019-04-28T03:32:10.135Z,9.85
2019-04-28T03:34:22.901Z,10.65
2019-04-28T03:36:52.191Z,10.53
2019-04-28T03:39:24.484Z,10.55
2019-04-28T03:41:56.141Z,11.25
2019-04-28T03:44:30.897Z,10.72
2019-04-28T03:47:03.105Z,10.43
2019-04-28T03:49:35.423Z,11.20
2019-04-28T03:52:10.541Z,10.40
2019-04-28T03:57:12.641Z,11.43
2019-04-28T03:59:44.258Z,11.08
2019-04-28T04:02:16.161Z,11.65
2019-04-28T04:04:49.050Z,11.80
2019-04-28T04:07:21.780Z,11.95
2019-04-28T04:09:55.220Z,12.20
2019-04-28T04:12:37.522Z,12.13
2019-04-28T04:15:11.315Z,10.63
2019-04-28T04:18:01.527Z,10.65
2019-04-28T04:20:33.199Z,9.43
2019-04-28T04:23:05.466Z,8.95
2019-04-28T04:25:37.034Z,8.95
2019-04-28T04:28:10.592Z,8.85
2019-04-28T04:30:42.497Z,9.33
2019-04-28T04:33:14.871Z,9.18
2019-04-28T04:35:46.736Z,9.48
2019-04-28T04:38:18.398Z,9.65
2019-04-28T04:40:51.292Z,9.85
2019-04-28T04:43:24.376Z,9.60
2019-04-28T04:46:14.218Z,10.58
2019-04-28T04:48:46.330Z,11.28
2019-04-28T04:51:20.919Z,10.85
2019-04-28T04:53:51.756Z,11.55
2019-04-28T04:56:23.722Z,12.30
2019-04-28T04:58:55.960Z,12.30
2019-04-28T05:01:30.411Z,13.25
2019-04-28T05:04:06.728Z,13.45
2019-04-28T05:06:41.574Z,13.50
2019-04-28T05:09:13.817Z,13.28
2019-04-28T05:11:46.038Z,13.83
2019-04-28T05:14:19.646Z,13.58
2019-04-28T05:16:50.959Z,12.68
2019-04-28T05:19:23.207Z,12.58
2019-04-28T05:21:54.877Z,12.78
2019-04-28T05:24:33.956Z,12.73
2019-04-28T05:27:05.889Z,12.90
2019-04-28T05:29:39.443Z,13.45
2019-04-28T05:32:11.414Z,13.03
2019-04-28T05:34:46.830Z,13.25
2019-04-28T05:37:16.820Z,13.30
2019-04-28T05:39:49.716Z,13.10
2019-04-28T05:42:21.982Z,13.40
2019-04-28T05:44:54.870Z,14.00
2019-04-28T05:47:26.731Z,13.80
2019-04-28T05:50:00.334Z,14.47
2019-04-28T05:52:33.510Z,15.10
2019-04-28T05:55:14.081Z,13.72
2019-04-28T05:58:05.839Z,13.70
2019-04-28T06:00:51.213Z,12.23
2019-04-28T06:03:30.654Z,14.87
2019-04-28T06:06:03.663Z,15.72
2019-04-28T06:08:37.142Z,16.02
2019-04-28T06:11:26.620Z,15.90
2019-04-28T06:13:59.877Z,14.40
2019-04-28T06:16:31.781Z,15.60
2019-04-28T06:19:03.765Z,14.65
2019-04-28T06:21:35.507Z,15.32
2019-04-28T06:24:07.579Z,14.13
2019-04-28T06:26:39.555Z,13.95
2019-04-28T06:29:11.374Z,14.13
2019-04-28T06:31:43.373Z,14.33
2019-04-28T06:34:15.240Z,12.70
2019-04-28T06:36:47.289Z,13.72
2019-04-28T06:39:19.165Z,13.93
2019-04-28T06:41:51.319Z,13.48
2019-04-28T06:44:22.998Z,12.70
2019-04-28T06:46:55.063Z,14.33
2019-04-28T06:49:26.928Z,11.90
2019-04-28T06:51:58.697Z,12.43
2019-04-28T06:54:30.553Z,12.35
2019-04-28T06:57:03.732Z,12.63
2019-04-28T06:59:35.718Z,12.95
2019-04-28T07:02:07.792Z,14.43
2019-04-28T07:04:39.527Z,14.03
2019-04-28T07:07:11.679Z,13.13
2019-04-28T07:09:43.683Z,13.85
2019-04-28T07:12:15.750Z,11.08
2019-04-28T07:14:47.609Z,11.08
2019-04-28T07:17:19.474Z,12.13
2019-04-28T07:19:53.284Z,11.50
2019-04-28T07:22:26.563Z,12.40
2019-04-28T07:24:58.526Z,12.47
2019-04-28T07:27:30.495Z,11.28
2019-04-28T07:30:02.270Z,11.20
2019-04-28T07:32:35.467Z,11.28
2019-04-28T07:35:07.388Z,10.05
2019-04-28T07:37:39.095Z,10.75
2019-04-28T07:40:11.466Z,9.88
2019-04-28T07:42:44.663Z,10.05
2019-04-28T07:45:16.941Z,10.78
2019-04-28T07:47:48.796Z,10.50
2019-04-28T07:50:20.845Z,9.85
2019-04-28T07:52:54.392Z,10.23
2019-04-28T07:55:26.558Z,9.45
2019-04-28T07:57:58.603Z,10.25
2019-04-28T08:00:31.688Z,9.60
2019-04-28T08:03:03.460Z,10.00
2019-04-28T08:05:35.605Z,10.13
2019-04-28T08:08:07.265Z,8.65
2019-04-28T08:10:39.356Z,7.70
2019-04-28T08:13:11.113Z,6.97
2019-04-28T08:15:42.982Z,7.10
2019-04-28T08:18:14.616Z,6.85
2019-04-28T08:20:46.582Z,7.45
2019-04-28T08:23:18.268Z,7.12
2019-04-28T08:25:50.427Z,6.33
2019-04-28T08:28:22.190Z,6.33
2019-04-28T08:30:53.845Z,6.55
2019-04-28T08:33:36.548Z,6.50
2019-04-28T08:36:08.309Z,6.30
2019-04-28T08:38:40.295Z,6.78
2019-04-28T08:41:12.263Z,6.90
2019-04-28T08:43:43.902Z,6.95
2019-04-28T08:46:17.490Z,6.62
2019-04-28T08:51:19.969Z,6.95
2019-04-28T08:53:51.995Z,6.80
2019-04-28T08:56:24.692Z,6.22
2019-04-28T08:58:56.338Z,5.83
2019-04-28T09:01:28.297Z,6.00
2019-04-28T09:03:59.936Z,6.70
2019-04-28T09:06:32.027Z,6.47
2019-04-28T09:09:05.747Z,6.03
2019-04-28T09:14:08.747Z,6.58
2019-04-28T09:16:40.384Z,6.37
2019-04-28T09:19:12.496Z,5.28
2019-04-28T09:21:44.110Z,5.55
2019-04-28T09:24:16.193Z,4.65
2019-04-28T09:26:47.956Z,4.62
2019-04-28T09:29:19.798Z,4.90
2019-04-28T09:31:51.681Z,4.90
2019-04-28T09:34:28.378Z,4.55
2019-04-28T09:36:56.750Z,4.95
2019-04-28T09:39:42.716Z,4.90
2019-04-28T09:42:31.505Z,4.83
2019-04-28T09:45:14.013Z,4.90
2019-04-28T09:47:45.977Z,5.28
2019-04-28T09:50:17.519Z,6.22
2019-04-28T09:52:49.703Z,5.87
2019-04-28T09:55:21.879Z,9.23
2019-04-28T09:57:54.921Z,5.85
2019-04-28T10:00:26.734Z,6.83
2019-04-28T10:02:58.596Z,10.65
2019-04-28T10:05:30.887Z,10.20
2019-04-28T10:08:02.529Z,9.55
2019-04-28T10:10:34.506Z,6.58
2019-04-28T10:13:06.153Z,7.72
2019-04-28T10:15:39.345Z,10.30
2019-04-28T10:18:11.316Z,6.33
2019-04-28T10:20:43.179Z,5.80
2019-04-28T10:23:14.838Z,5.90
2019-04-28T10:25:46.907Z,6.10
2019-04-28T10:28:19.800Z,7.33
2019-04-28T10:30:51.606Z,5.80
2019-04-28T10:33:23.200Z,5.80
2019-04-28T10:35:55.202Z,6.10
2019-04-28T10:38:27.051Z,7.25
2019-04-28T10:41:00.173Z,7.15
2019-04-28T10:43:32.810Z,6.55
2019-04-28T10:46:04.789Z,8.78
2019-04-28T10:48:37.609Z,6.85
2019-04-28T10:51:09.219Z,7.65
2019-04-28T10:53:41.092Z,7.03
2019-04-28T10:56:13.145Z,6.55
2019-04-28T10:58:46.561Z,7.10
2019-04-28T11:01:18.508Z,6.20
2019-04-28T11:03:52.031Z,6.08
2019-04-28T11:06:23.999Z,6.42
2019-04-28T11:09:00.038Z,6.60
2019-04-28T11:11:31.805Z,6.87
2019-04-28T11:14:03.479Z,5.67
2019-04-28T11:16:37.799Z,5.20
2019-04-28T11:19:09.975Z,5.42
2019-04-28T11:21:41.824Z,5.22
2019-04-28T11:24:13.912Z,4.97
2019-04-28T11:26:45.651Z,5.30
2019-04-28T11:29:17.942Z,6.08
2019-04-28T11:31:50.522Z,6.20
2019-04-28T11:34:26.993Z,6.45
2019-04-28T11:36:58.958Z,5.90
2019-04-28T11:39:32.351Z,6.33
2019-04-28T11:42:04.234Z,6.92
2019-04-28T11:44:36.081Z,6.55
2019-04-28T11:47:09.586Z,7.40
2019-04-28T11:49:41.436Z,6.95
2019-04-28T11:52:13.626Z,9.40
2019-04-28T11:54:45.390Z,9.20
2019-04-28T11:57:17.377Z,16.80
2019-04-28T11:59:49.318Z,8.58
2019-04-28T12:02:21.280Z,9.80
2019-04-28T12:04:54.917Z,12.35
2019-04-28T12:07:26.746Z,7.60
2019-04-28T12:10:05.392Z,11.38
2019-04-28T12:12:43.374Z,9.18
2019-04-28T12:15:25.992Z,12.00
2019-04-28T12:18:14.749Z,12.30
2019-04-28T12:20:46.718Z,25.45
2019-04-28T12:23:18.667Z,9.88
2019-04-28T12:25:50.769Z,39.88
2019-04-28T12:28:22.496Z,61.45
2019-04-28T12:30:54.580Z,7.87
2019-04-28T12:33:26.481Z,8.35
2019-04-28T12:35:58.627Z,9.63
2019-04-28T12:38:30.373Z,7.87
2019-04-28T12:41:02.441Z,8.13
2019-04-28T12:43:34.194Z,7.60
2019-04-28T12:46:06.168Z,7.45
2019-04-28T12:48:37.929Z,7.37
2019-04-28T12:51:09.897Z,7.28
2019-04-28T12:53:41.929Z,7.20
2019-04-28T12:56:15.363Z,9.43
2019-04-28T12:58:50.095Z,9.63
2019-04-28T13:01:32.692Z,7.40
2019-04-28T13:04:12.153Z,6.28
2019-04-28T13:06:46.268Z,6.00
2019-04-28T13:09:18.337Z,6.20
2019-04-28T13:11:50.202Z,6.55
2019-04-28T13:14:22.270Z,6.50
2019-04-28T13:16:54.033Z,6.67
2019-04-28T13:19:26.313Z,7.30
2019-04-28T13:21:58.071Z,5.65
2019-04-28T13:24:30.141Z,5.40
2019-04-28T13:27:02.001Z,7.67
2019-04-28T13:29:33.953Z,9.58
2019-04-28T13:32:05.853Z,10.10
2019-04-28T13:34:39.139Z,11.65
2019-04-28T13:37:11.120Z,10.98
2019-04-28T13:39:45.207Z,12.13
2019-04-28T13:42:17.290Z,12.93
2019-04-28T13:44:50.739Z,13.55
2019-04-28T13:49:57.080Z,12.28
2019-04-28T13:52:28.943Z,11.30
2019-04-28T13:55:08.174Z,11.40
2019-04-28T13:57:42.338Z,11.22
2019-04-28T14:00:18.055Z,10.98
2019-04-28T14:02:54.623Z,10.63
2019-04-28T14:05:34.066Z,10.45
2019-04-28T14:08:05.755Z,10.38
2019-04-28T14:10:37.664Z,11.12
2019-04-28T14:13:10.800Z,11.43
2019-04-28T14:15:42.843Z,11.40
2019-04-28T14:18:14.603Z,12.00
2019-04-28T14:20:46.739Z,11.90
2019-04-28T14:23:19.692Z,12.13
2019-04-28T14:25:51.744Z,12.10
2019-04-28T14:28:23.422Z,12.35
2019-04-28T14:30:55.322Z,13.05
2019-04-28T14:33:26.930Z,13.60
2019-04-28T14:35:58.670Z,12.37
2019-04-28T14:38:30.660Z,11.15
2019-04-28T14:41:02.311Z,10.23
2019-04-28T14:43:34.380Z,10.60
2019-04-28T14:46:06.130Z,10.98
2019-04-28T14:48:38.159Z,11.08
2019-04-28T14:51:10.815Z,11.48
2019-04-28T14:53:42.339Z,12.18
2019-04-28T14:56:14.337Z,11.53
2019-04-28T14:58:46.380Z,10.90
2019-04-28T15:01:21.104Z,10.93
2019-04-28T15:03:54.385Z,10.63
2019-04-28T15:06:28.115Z,10.72
2019-04-28T15:09:16.776Z,10.45
2019-04-28T15:11:56.423Z,10.75
2019-04-28T15:14:28.225Z,11.40
2019-04-28T15:17:01.175Z,12.43
2019-04-28T15:19:33.098Z,12.20
2019-04-28T15:22:05.105Z,17.77
2019-04-28T15:24:36.966Z,32.60
2019-04-28T15:27:09.016Z,13.18
2019-04-28T15:29:40.786Z,19.40
2019-04-28T15:32:12.345Z,12.98
2019-04-28T15:34:44.421Z,11.80
2019-04-28T15:37:16.286Z,11.60
2019-04-28T15:39:48.271Z,10.82
2019-04-28T15:42:20.110Z,18.98
2019-04-28T15:44:51.853Z,19.37
2019-04-28T15:47:23.835Z,16.52
2019-04-28T15:49:55.787Z,11.90
2019-04-28T15:52:27.977Z,12.37
2019-04-28T15:54:59.826Z,12.15
2019-04-28T15:57:31.600Z,11.43
2019-04-28T16:00:05.334Z,12.33
2019-04-28T16:02:38.402Z,12.40
2019-04-28T16:05:10.630Z,12.00
2019-04-28T16:07:42.312Z,15.08
2019-04-28T16:10:14.794Z,15.18
2019-04-28T16:12:47.196Z,15.83
2019-04-28T16:15:18.947Z,16.90
2019-04-28T16:17:50.502Z,17.30
2019-04-28T16:20:22.468Z,16.80
2019-04-28T16:22:54.521Z,15.45
2019-04-28T16:25:26.414Z,16.50
2019-04-28T16:27:57.936Z,16.95
2019-04-28T16:30:29.821Z,16.07
2019-04-28T16:33:01.887Z,16.40
2019-04-28T16:35:34.677Z,16.97
2019-04-28T16:38:06.531Z,18.95
2019-04-28T16:40:39.200Z,31.37
2019-04-28T16:43:11.587Z,35.75
2019-04-28T16:45:43.280Z,30.62
2019-04-28T16:48:15.200Z,27.48
2019-04-28T16:50:47.191Z,22.50
2019-04-28T16:53:18.822Z,18.95
2019-04-28T16:55:52.430Z,14.70
2019-04-28T16:58:41.290Z,13.20
2019-04-28T17:01:31.622Z,12.88
2019-04-28T17:04:03.675Z,12.95
2019-04-28T17:06:35.741Z,12.82
2019-04-28T17:09:08.528Z,12.63
2019-04-28T17:11:40.799Z,12.53
2019-04-28T17:14:12.661Z,13.88
2019-04-28T17:16:45.959Z,13.48
2019-04-28T17:19:17.910Z,13.53
2019-04-28T17:21:50.711Z,13.48
2019-04-28T17:24:22.760Z,13.80
2019-04-28T17:26:54.623Z,14.28
2019-04-28T17:29:27.016Z,13.65
2019-04-28T17:31:58.656Z,14.47
2019-04-28T17:34:33.629Z,15.38
2019-04-28T17:37:05.575Z,14.78
2019-04-28T17:39:37.231Z,14.93
2019-04-28T17:42:09.298Z,15.13
2019-04-28T17:44:41.472Z,14.73
2019-04-28T17:47:14.191Z,15.45
2019-04-28T17:49:45.808Z,17.67
2019-04-28T17:52:18.900Z,31.05
2019-04-28T17:54:50.765Z,26.90
2019-04-28T17:57:22.833Z,24.02
2019-04-28T17:59:56.292Z,22.95
2019-04-28T18:02:45.398Z,20.92
2019-04-28T18:05:30.881Z,18.92
2019-04-28T18:08:02.949Z,18.27
2019-04-28T18:10:35.325Z,17.92
2019-04-28T18:13:07.093Z,19.50
2019-04-28T18:15:49.090Z,20.37
2019-04-28T18:18:31.834Z,28.07
2019-04-28T18:21:03.660Z,28.98
2019-04-28T18:23:35.847Z,37.78
2019-04-28T18:26:07.715Z,23.92
2019-04-28T18:28:39.675Z,20.80
2019-04-28T18:31:15.937Z,20.05
2019-04-28T18:34:05.929Z,18.35
2019-04-28T18:36:55.509Z,19.92
2019-04-28T18:39:44.369Z,20.88
2019-04-28T18:42:18.068Z,20.85
2019-04-28T18:44:50.024Z,22.60
2019-04-28T18:47:22.005Z,22.70
2019-04-28T18:49:54.693Z,22.22
2019-04-28T18:52:27.496Z,21.70
2019-04-28T18:54:59.077Z,20.40
2019-04-28T18:57:31.410Z,19.65
2019-04-28T19:00:04.660Z,19.17
2019-04-28T19:02:42.190Z,21.25
2019-04-28T19:05:14.370Z,22.90
2019-04-28T19:07:50.650Z,25.68
2019-04-28T19:10:40.534Z,24.07
2019-04-28T19:13:13.913Z,21.77
2019-04-28T19:16:04.009Z,21.30
2019-04-28T19:18:37.616Z,21.62
2019-04-28T19:21:09.375Z,21.37
2019-04-28T19:23:41.461Z,21.95
2019-04-28T19:26:13.116Z,24.85
2019-04-28T19:28:45.223Z,23.52
2019-04-28T19:31:16.931Z,23.00
2019-04-28T19:33:49.017Z,23.02
2019-04-28T19:36:20.865Z,19.55
2019-04-28T19:39:02.997Z,19.37
2019-04-28T19:41:26.022Z,22.25
2019-04-28T19:43:59.341Z,21.82
2019-04-28T19:46:31.216Z,20.57
2019-04-28T19:49:03.273Z,20.25
2019-04-28T19:51:35.340Z,22.32
2019-04-28T19:54:07.901Z,22.45
2019-04-28T19:56:47.768Z,21.97
2019-04-28T19:59:27.497Z,21.73
2019-04-28T20:02:02.241Z,21.35
2019-04-28T20:04:34.104Z,21.95
2019-04-28T20:07:06.177Z,23.10
2019-04-28T20:09:37.947Z,21.27
2019-04-28T20:12:09.697Z,21.80
2019-04-28T20:14:41.850Z,23.38
2019-04-28T20:17:13.761Z,22.93
2019-04-28T20:19:46.007Z,23.60
2019-04-28T20:22:17.848Z,22.67
2019-04-28T20:24:49.731Z,24.10
2019-04-28T20:27:21.886Z,23.47
2019-04-28T20:29:53.545Z,22.37
2019-04-28T20:32:25.614Z,25.05
2019-04-28T20:34:57.595Z,24.47
2019-04-28T20:37:39.802Z,31.55
2019-04-28T20:40:16.563Z,26.70
2019-04-28T20:43:05.016Z,24.47
2019-04-28T20:45:37.099Z,24.30
2019-04-28T20:48:09.063Z,25.20
2019-04-28T20:50:41.027Z,24.87
2019-04-28T20:53:14.243Z,25.65
2019-04-28T20:55:46.291Z,25.57
2019-04-28T20:58:18.060Z,26.20
2019-04-28T21:00:50.134Z,25.92
2019-04-28T21:03:22.294Z,24.98
2019-04-28T21:05:53.952Z,25.80
2019-04-28T21:08:25.824Z,25.00
2019-04-28T21:10:57.495Z,25.88
2019-04-28T21:13:29.438Z,28.23
2019-04-28T21:16:01.487Z,27.70
2019-04-28T21:18:33.270Z,26.37
2019-04-28T21:21:05.333Z,24.82
2019-04-28T21:23:37.179Z,26.17
2019-04-28T21:26:09.250Z,24.57
2019-04-28T21:28:41.031Z,24.63
2019-04-28T21:31:12.979Z,21.37
2019-04-28T21:33:44.784Z,20.92
2019-04-28T21:36:16.621Z,21.93
2019-04-28T21:38:49.991Z,22.22
2019-04-28T21:41:22.001Z,20.15
2019-04-28T21:43:56.301Z,19.52
2019-04-28T21:46:29.888Z,19.98
2019-04-28T21:49:03.297Z,17.05
2019-04-28T21:51:36.551Z,17.12
2019-04-28T21:54:08.582Z,17.25
2019-04-28T21:56:40.846Z,15.48
2019-04-28T21:59:12.804Z,17.42
2019-04-28T22:01:45.448Z,17.35
2019-04-28T22:04:17.442Z,17.10
2019-04-28T22:06:49.432Z,18.57
2019-04-28T22:09:21.507Z,18.20
2019-04-28T22:11:53.250Z,16.75
2019-04-28T22:14:25.194Z,16.85
2019-04-28T22:16:57.075Z,16.42
2019-04-28T22:19:29.241Z,16.93
2019-04-28T22:22:00.829Z,17.15
2019-04-28T22:24:38.089Z,17.20
2019-04-28T22:27:11.471Z,17.17
2019-04-28T22:29:43.246Z,17.65
2019-04-28T22:32:15.111Z,16.65
2019-04-28T22:34:47.426Z,16.15
2019-04-28T22:37:19.248Z,16.17
2019-04-28T22:39:50.881Z,16.25
2019-04-28T22:42:22.974Z,16.70
2019-04-28T22:44:55.856Z,16.77
2019-04-28T22:47:28.216Z,16.67
2019-04-28T22:49:59.998Z,17.30
2019-04-28T22:52:31.656Z,17.40
2019-04-28T22:55:06.856Z,16.17
2019-04-28T22:57:42.971Z,15.25
2019-04-28T23:00:35.517Z,14.53
2019-04-28T23:03:08.782Z,13.70
2019-04-28T23:05:40.519Z,12.85
2019-04-28T23:08:12.063Z,11.68
2019-04-28T23:10:43.798Z,11.50
2019-04-28T23:13:15.316Z,11.00
2019-04-28T23:15:47.037Z,10.95
2019-04-28T23:18:19.039Z,10.35
2019-04-28T23:20:56.960Z,9.10
2019-04-28T23:23:28.925Z,9.83
2019-04-28T23:26:03.020Z,9.48
2019-04-28T23:28:34.189Z,10.40
2019-04-28T23:31:05.829Z,9.98
2019-04-28T23:33:37.813Z,10.58
2019-04-28T23:36:09.881Z,10.15
2019-04-28T23:38:42.586Z,11.33
2019-04-28T23:41:15.946Z,10.30
2019-04-28T23:43:47.832Z,10.43
2019-04-28T23:46:19.800Z,10.93
2019-04-28T23:48:51.848Z,11.45
2019-04-28T23:51:37.349Z,11.25
2019-04-28T23:54:09.108Z,10.25
2019-04-28T23:56:41.156Z,10.82
2019-04-28T23:59:13.019Z,10.70
